Terminal Aerodrome Forecast
Issued by NWS

Home | Current Version | Previous Version | Text Only | Print | Product List | Glossary On
Versions: 1 2 3 4 5 6 7 8 9 10 11 12 13
000
FTUS43 KGRB 011100
TAFATW
TAF
KATW 011122Z 0112/0212 VRB03KT P6SM SKC
     FM011600 24008KT P6SM FEW050 SCT250
     FM012200 19007KT P6SM SCT070 BKN120=

USA.gov is the U.S. government's official web portal to all federal, state and local government web resources and services.